Página principal
METAR-TAF:

METAR-TAF

Aeroportos :

Recife, Pernambuco, Brasil

Aeroporto Internacional do Recife

latitude: 08-08S, longitude: 034-55W, altura: 19 m

Observação actual do tempo

O boletim foi feito há 1 hora e 13 minutos, às 08:00 UTC
Vento 5 kt de es-sudeste
Temperatura 28°C
Humidade 79%
Pressão 1011 hPa
Visibilidade 10 km ou mais
Poucas nuvensa uma altura de 2300 ft

METAR: SBRF 260800Z 12005KT 9999 FEW023 28/24 Q1011

Hora: 06:13 (09:13 UTC)

Previsão

O boletim foi feito há 6 horas e 13 minutos, às 03:00 UTC
Previsão válida de 26 às 06 UTC a 27 às 06 UTC
Vento 4 kt de su-sudoeste
Visibilidade: 8000 m
Nuvens dispersasa uma altura de 2000 ft
Tornando-se
de 26 às 12 UTC a 26 às 14 UTC
Vento 8 kt de es-sudeste
Tornando-se
de 27 às 04 UTC a 27 às 05 UTC
Vento 4 kt de su-sudoeste

TAF: SBRF 260300Z 2606/2706 21004KT 8000 SCT020 TN25/2607Z TX30/2615Z BECMG 2612/2614 12008KT BECMG 2704/2705 21004KT RMK PEI

Observações e previsões do tempo de mais de 4000 aeroportos (mensagens METAR e TAF).

As estações disponíveis são os pontos amarelos e vermelhos sobre o mapa.

Mova o rato sobre o mapa para ver o nome da estação.

Depois clique no ponto para visualizar as observações e previsões meteorológicas.

Para alterar o mapa : clique nos botões verdes com uma cruz preta para aumentar o zoom; no botão verde com uma pitada de zoom; ou nas setas verdes para mapas adjacentes.


METAR-TAF: